createdAt,value
2019-03-20T00:01:17.062Z,10.93
2019-03-20T00:03:47.899Z,9.90
2019-03-20T00:06:20.262Z,12.67
2019-03-20T00:08:51.139Z,12.20
2019-03-20T00:11:25.324Z,16.90
2019-03-20T00:14:15.579Z,12.90
2019-03-20T00:16:46.139Z,13.70
2019-03-20T00:19:17.570Z,12.27
2019-03-20T00:22:07.734Z,9.70
2019-03-20T00:24:58.054Z,11.53
2019-03-20T00:27:28.832Z,11.13
2019-03-20T00:29:59.982Z,12.80
2019-03-20T00:32:51.699Z,12.00
2019-03-20T00:35:33.681Z,12.53
2019-03-20T00:38:05.885Z,9.73
2019-03-20T00:43:52.390Z,7.67
2019-03-20T00:46:24.548Z,13.97
2019-03-20T00:49:15.111Z,8.03
2019-03-20T00:52:06.151Z,14.40
2019-03-20T00:54:38.069Z,14.70
2019-03-20T00:57:08.666Z,13.30
2019-03-20T00:59:39.859Z,9.83
2019-03-20T01:02:29.438Z,10.37
2019-03-20T01:05:19.403Z,11.30
2019-03-20T01:07:57.270Z,10.33
2019-03-20T01:10:28.196Z,10.23
2019-03-20T01:12:59.031Z,11.17
2019-03-20T01:15:30.080Z,11.87
2019-03-20T01:18:01.355Z,10.07
2019-03-20T01:20:32.294Z,18.33
2019-03-20T01:23:03.578Z,14.67
2019-03-20T01:25:38.112Z,8.10
2019-03-20T01:28:09.999Z,12.77
2019-03-20T01:30:41.027Z,9.87
2019-03-20T01:33:33.564Z,11.77
2019-03-20T01:36:23.599Z,11.17
2019-03-20T01:39:01.242Z,13.67
2019-03-20T01:41:38.005Z,9.30
2019-03-20T01:44:20.179Z,10.97
2019-03-20T01:47:01.838Z,9.63
2019-03-20T01:49:44.230Z,10.40
2019-03-20T01:52:29.954Z,7.50
2019-03-20T01:55:10.809Z,7.77
2019-03-20T01:58:02.147Z,14.67
2019-03-20T02:00:54.269Z,10.80
2019-03-20T02:03:44.876Z,12.80
2019-03-20T02:06:22.633Z,11.03
2019-03-20T02:09:14.834Z,10.67
2019-03-20T02:11:45.587Z,13.03
2019-03-20T02:14:16.451Z,10.13
2019-03-20T02:17:06.412Z,8.70
2019-03-20T02:19:56.427Z,16.77
2019-03-20T02:22:38.741Z,14.63
2019-03-20T02:27:50.353Z,10.57
2019-03-20T02:30:42.830Z,12.53
2019-03-20T02:33:35.898Z,11.57
2019-03-20T02:36:06.985Z,11.20
2019-03-20T02:38:41.753Z,8.57
2019-03-20T02:41:13.025Z,11.40
2019-03-20T02:44:03.163Z,12.40
2019-03-20T02:46:34.749Z,10.60
2019-03-20T02:49:24.620Z,10.50
2019-03-20T02:52:15.134Z,11.80
2019-03-20T02:55:07.565Z,14.80
2019-03-20T03:00:50.494Z,11.07
2019-03-20T03:03:40.976Z,11.23
2019-03-20T03:12:19.042Z,14.00
2019-03-20T03:15:10.651Z,8.57
2019-03-20T03:18:19.858Z,12.00
2019-03-20T03:20:51.088Z,9.63
2019-03-20T03:23:32.061Z,9.20
2019-03-20T03:26:21.961Z,8.83
2019-03-20T03:29:12.243Z,9.83
2019-03-20T03:32:02.209Z,9.23
2019-03-20T03:34:51.583Z,11.60
2019-03-20T03:43:24.365Z,18.20
2019-03-20T03:45:56.951Z,11.67
2019-03-20T03:49:05.818Z,12.60
2019-03-20T03:51:55.450Z,20.10
2019-03-20T03:54:45.433Z,11.30
2019-03-20T03:57:20.497Z,16.83
2019-03-20T04:00:11.277Z,13.90
2019-03-20T04:02:42.020Z,16.40
2019-03-20T04:05:31.620Z,14.20
2019-03-20T04:08:21.434Z,10.40
2019-03-20T04:10:52.211Z,10.87
2019-03-20T04:13:22.968Z,17.10
2019-03-20T04:16:31.996Z,8.53
2019-03-20T04:19:02.816Z,16.37
2019-03-20T04:21:34.439Z,15.00
2019-03-20T04:24:05.532Z,13.70
2019-03-20T04:26:55.490Z,9.87
2019-03-20T04:29:26.282Z,16.67
2019-03-20T04:31:56.937Z,13.87
2019-03-20T04:34:32.826Z,11.23
2019-03-20T04:37:22.609Z,11.50
2019-03-20T04:39:54.317Z,13.57
2019-03-20T04:42:44.163Z,15.83
2019-03-20T04:45:15.065Z,15.90
2019-03-20T04:48:04.850Z,11.37
2019-03-20T04:50:35.495Z,16.17
2019-03-20T04:53:06.265Z,11.60
2019-03-20T04:55:55.930Z,9.77
2019-03-20T04:58:45.566Z,10.07
2019-03-20T05:01:16.345Z,9.80
2019-03-20T05:03:47.305Z,13.40
2019-03-20T05:06:18.430Z,19.23
2019-03-20T05:08:49.084Z,8.23
2019-03-20T05:11:38.622Z,15.87
2019-03-20T05:14:09.686Z,16.37
2019-03-20T05:16:43.055Z,12.60
2019-03-20T05:19:25.693Z,9.13
2019-03-20T05:22:09.477Z,10.03
2019-03-20T05:24:40.418Z,15.90
2019-03-20T05:27:29.942Z,13.73
2019-03-20T05:30:00.919Z,11.23
2019-03-20T05:32:53.114Z,10.13
2019-03-20T05:35:43.007Z,13.67
2019-03-20T05:38:33.348Z,13.50
2019-03-20T05:41:24.275Z,15.70
2019-03-20T05:44:13.902Z,9.87
2019-03-20T05:46:56.007Z,13.00
2019-03-20T05:49:27.047Z,9.10
2019-03-20T05:51:57.795Z,14.73
2019-03-20T05:54:28.684Z,11.20
2019-03-20T05:57:18.966Z,12.03
2019-03-20T06:00:09.903Z,10.37
2019-03-20T06:02:40.813Z,13.80
2019-03-20T06:05:13.710Z,14.80
2019-03-20T06:08:03.263Z,17.97
2019-03-20T06:10:52.996Z,20.30
2019-03-20T06:13:23.754Z,13.23
2019-03-20T06:15:54.987Z,13.93
2019-03-20T06:18:47.731Z,19.13
2019-03-20T06:21:18.696Z,9.70
2019-03-20T06:23:49.731Z,12.00
2019-03-20T06:26:21.161Z,17.93
2019-03-20T06:29:10.649Z,17.27
2019-03-20T06:32:00.305Z,22.67
2019-03-20T06:34:30.910Z,15.77
2019-03-20T06:37:20.468Z,12.53
2019-03-20T06:39:53.415Z,13.00
2019-03-20T06:42:24.816Z,12.57
2019-03-20T06:45:14.571Z,12.23
2019-03-20T06:47:45.677Z,12.93
2019-03-20T06:50:17.944Z,14.53
2019-03-20T06:52:48.730Z,15.90
2019-03-20T06:55:19.824Z,15.80
2019-03-20T06:57:50.763Z,15.60
2019-03-20T07:01:01.178Z,15.50
2019-03-20T07:03:57.151Z,18.20
2019-03-20T07:06:52.736Z,18.53
2019-03-20T07:09:38.211Z,11.73
2019-03-20T07:12:27.844Z,22.40
2019-03-20T07:14:58.808Z,16.80
2019-03-20T07:17:48.667Z,22.47
2019-03-20T07:20:19.330Z,15.63
2019-03-20T07:23:08.917Z,16.43
2019-03-20T07:25:49.475Z,17.03
2019-03-20T07:28:21.365Z,19.37
2019-03-20T07:30:52.033Z,19.33
2019-03-20T07:33:23.335Z,16.30
2019-03-20T07:36:13.312Z,16.20
2019-03-20T07:38:44.535Z,14.87
2019-03-20T07:41:34.062Z,11.37
2019-03-20T07:44:04.907Z,14.40
2019-03-20T07:46:36.779Z,17.33
2019-03-20T07:49:07.682Z,12.80
2019-03-20T07:51:38.725Z,12.77
2019-03-20T07:54:09.367Z,10.50
2019-03-20T07:56:59.171Z,13.57
2019-03-20T07:59:29.749Z,11.43
2019-03-20T08:02:00.374Z,10.70
2019-03-20T08:04:31.291Z,9.33
2019-03-20T08:07:01.911Z,10.73
2019-03-20T08:09:53.844Z,11.53
2019-03-20T08:12:24.700Z,9.30
2019-03-20T08:14:55.681Z,10.07
2019-03-20T08:17:45.329Z,13.77
2019-03-20T08:20:17.449Z,10.33
2019-03-20T08:22:48.384Z,13.37
2019-03-20T08:25:30.289Z,10.80
2019-03-20T08:28:11.801Z,9.07
2019-03-20T08:30:54.504Z,8.70
2019-03-20T08:33:36.673Z,12.13
2019-03-20T08:36:07.527Z,10.63
2019-03-20T08:38:38.188Z,9.93
2019-03-20T08:41:10.257Z,7.83
2019-03-20T08:43:40.993Z,8.27
2019-03-20T08:46:13.130Z,10.17
2019-03-20T08:48:45.353Z,8.10
2019-03-20T08:51:40.814Z,9.07
2019-03-20T08:54:11.465Z,10.10
2019-03-20T08:59:31.672Z,9.37
2019-03-20T09:02:02.449Z,7.20
2019-03-20T09:04:35.751Z,8.07
2019-03-20T09:07:06.566Z,9.33
2019-03-20T09:09:37.436Z,9.90
2019-03-20T09:12:08.213Z,8.40
2019-03-20T09:14:58.055Z,12.23
2019-03-20T09:17:28.708Z,7.93
2019-03-20T09:20:18.255Z,8.63
2019-03-20T09:23:07.886Z,9.37
2019-03-20T09:25:50.135Z,8.73
2019-03-20T09:28:20.970Z,8.07
2019-03-20T09:31:11.452Z,7.90
2019-03-20T09:33:42.079Z,7.60
2019-03-20T09:36:42.664Z,8.47
2019-03-20T09:39:08.005Z,7.33
2019-03-20T09:41:39.070Z,5.33
2019-03-20T09:44:10.031Z,6.00
2019-03-20T09:46:41.137Z,6.00
2019-03-20T09:49:12.061Z,8.33
2019-03-20T09:51:43.069Z,5.13
2019-03-20T09:54:13.726Z,5.20
2019-03-20T09:57:05.959Z,6.07
2019-03-20T09:59:55.605Z,7.90
2019-03-20T10:02:28.548Z,4.83
2019-03-20T10:04:59.251Z,6.60
2019-03-20T10:07:30.467Z,5.50
2019-03-20T10:10:21.132Z,5.63
2019-03-20T10:13:29.644Z,6.10
2019-03-20T10:16:19.224Z,5.87
2019-03-20T10:19:09.081Z,8.60
2019-03-20T10:21:39.712Z,7.37
2019-03-20T10:24:30.065Z,8.87
2019-03-20T10:27:00.960Z,5.43
2019-03-20T10:29:50.565Z,4.80
2019-03-20T10:32:40.186Z,4.90
2019-03-20T10:35:11.147Z,8.37
2019-03-20T10:38:00.810Z,3.43
2019-03-20T10:40:50.491Z,5.03
2019-03-20T10:43:40.132Z,5.23
2019-03-20T10:46:29.939Z,4.80
2019-03-20T10:49:19.587Z,4.23
2019-03-20T10:51:51.188Z,5.53
2019-03-20T10:54:22.416Z,5.43
2019-03-20T10:56:53.102Z,6.73
2019-03-20T10:59:23.742Z,6.27
2019-03-20T11:01:54.837Z,9.13
2019-03-20T11:04:25.674Z,5.80
2019-03-20T11:06:59.316Z,7.87
2019-03-20T11:09:31.283Z,5.73
2019-03-20T11:29:47.728Z,6.53
2019-03-20T11:32:49.926Z,6.40
2019-03-20T11:35:27.340Z,4.63
2019-03-20T11:38:06.017Z,8.93
2019-03-20T11:40:37.858Z,8.37
2019-03-20T11:43:08.807Z,7.50
2019-03-20T11:45:39.600Z,6.20
2019-03-20T11:48:10.587Z,6.60
2019-03-20T11:50:42.063Z,4.77
2019-03-20T11:53:14.067Z,7.90
2019-03-20T11:55:45.133Z,7.70
2019-03-20T11:58:15.959Z,7.77
2019-03-20T12:00:47.169Z,4.47
2019-03-20T12:03:17.858Z,10.73
2019-03-20T12:05:48.959Z,5.67
2019-03-20T12:08:41.307Z,4.10
2019-03-20T12:11:12.998Z,5.07
2019-03-20T12:13:45.112Z,6.23
2019-03-20T12:16:16.830Z,3.70
2019-03-20T12:19:06.678Z,6.97
2019-03-20T12:21:37.351Z,5.00
2019-03-20T12:24:28.721Z,6.07
2019-03-20T12:26:59.632Z,5.53
2019-03-20T12:29:30.561Z,7.23
2019-03-20T12:32:22.196Z,3.90
2019-03-20T12:34:52.944Z,4.77
2019-03-20T12:37:42.970Z,3.50
2019-03-20T12:40:18.156Z,6.57
2019-03-20T12:42:56.486Z,6.27
2019-03-20T12:45:28.977Z,8.40
2019-03-20T12:47:59.855Z,6.27
2019-03-20T12:50:37.636Z,5.43
2019-03-20T12:53:09.236Z,6.00
2019-03-20T12:55:40.081Z,4.37
2019-03-20T13:01:41.519Z,8.00
2019-03-20T13:04:31.234Z,5.87
2019-03-20T13:07:01.939Z,6.30
2019-03-20T13:09:33.317Z,5.97
2019-03-20T13:12:04.274Z,5.90
2019-03-20T13:14:53.904Z,6.33
2019-03-20T13:17:45.293Z,8.67
2019-03-20T13:20:16.432Z,6.10
2019-03-20T13:22:49.695Z,8.13
2019-03-20T13:25:20.610Z,6.30
2019-03-20T13:27:51.573Z,3.97
2019-03-20T13:30:24.991Z,5.53
2019-03-20T13:35:33.361Z,6.90
2019-03-20T13:38:23.013Z,5.00
2019-03-20T13:40:53.723Z,4.97
2019-03-20T13:43:43.374Z,3.77
2019-03-20T13:46:32.928Z,5.47
2019-03-20T13:49:04.174Z,6.13
2019-03-20T13:51:53.746Z,7.10
2019-03-20T13:54:35.389Z,5.97
2019-03-20T13:57:15.867Z,5.20
2019-03-20T13:59:46.587Z,5.57
2019-03-20T14:02:17.391Z,5.53
2019-03-20T14:04:49.576Z,4.33
2019-03-20T14:07:57.983Z,5.37
2019-03-20T14:10:50.992Z,4.47
2019-03-20T14:13:39.717Z,6.03
2019-03-20T14:16:29.297Z,7.47
2019-03-20T14:19:18.885Z,6.37
2019-03-20T14:22:09.452Z,5.27
2019-03-20T14:24:40.629Z,3.57
2019-03-20T14:27:30.190Z,3.17
2019-03-20T14:30:24.421Z,6.73
2019-03-20T14:33:14.648Z,3.70
2019-03-20T14:36:04.195Z,3.53
2019-03-20T14:38:54.113Z,5.37
2019-03-20T14:41:43.836Z,5.03
2019-03-20T14:44:34.370Z,4.50
2019-03-20T14:47:15.035Z,5.23
2019-03-20T14:49:45.838Z,5.83
2019-03-20T14:52:17.244Z,5.43
2019-03-20T14:55:07.417Z,4.03
2019-03-20T14:57:57.632Z,4.03
2019-03-20T15:00:47.453Z,3.13
2019-03-20T15:03:38.803Z,7.83
2019-03-20T15:06:19.615Z,3.13
2019-03-20T15:08:50.260Z,6.60
2019-03-20T15:11:39.793Z,4.73
2019-03-20T15:14:29.331Z,5.03
2019-03-20T15:17:20.214Z,6.17
2019-03-20T15:19:58.108Z,4.03
2019-03-20T15:22:28.740Z,4.27
2019-03-20T15:25:18.455Z,5.83
2019-03-20T15:28:08.170Z,3.43
2019-03-20T15:30:39.396Z,6.13
2019-03-20T15:33:10.362Z,2.97
2019-03-20T15:35:41.165Z,5.13
2019-03-20T15:38:30.753Z,3.73
2019-03-20T15:41:20.319Z,5.23
2019-03-20T15:44:09.889Z,5.70
2019-03-20T15:46:59.520Z,6.57
2019-03-20T15:49:49.353Z,5.10
2019-03-20T15:52:20.368Z,5.17
2019-03-20T15:55:11.251Z,4.80
2019-03-20T15:57:44.201Z,5.47
2019-03-20T16:00:33.860Z,3.87
2019-03-20T16:03:07.630Z,8.17
2019-03-20T16:05:57.363Z,3.00
2019-03-20T16:08:28.954Z,5.90
2019-03-20T16:11:18.422Z,4.13
2019-03-20T16:14:11.480Z,6.40
2019-03-20T16:17:01.034Z,5.87
2019-03-20T16:19:50.628Z,6.80
2019-03-20T16:22:40.188Z,4.73
2019-03-20T16:25:11.415Z,7.07
2019-03-20T16:28:01.294Z,6.27
2019-03-20T16:30:51.026Z,5.37
2019-03-20T16:33:40.633Z,6.40
2019-03-20T16:36:30.166Z,4.97
2019-03-20T16:39:19.723Z,3.93
2019-03-20T16:42:09.591Z,6.33
2019-03-20T16:44:59.329Z,4.53
2019-03-20T16:47:49.316Z,3.80
2019-03-20T16:50:21.008Z,7.20
2019-03-20T16:52:52.475Z,5.77
2019-03-20T16:55:34.572Z,5.07
2019-03-20T16:58:16.257Z,6.17
2019-03-20T17:00:46.931Z,6.47
2019-03-20T17:03:36.474Z,4.57
2019-03-20T17:06:07.393Z,5.80
2019-03-20T17:08:57.990Z,5.50
2019-03-20T17:11:38.086Z,4.50
2019-03-20T17:14:01.026Z,4.30
2019-03-20T17:16:50.602Z,5.90
2019-03-20T17:19:40.303Z,4.53
2019-03-20T17:22:30.717Z,4.07
2019-03-20T17:25:01.943Z,5.47
2019-03-20T17:27:51.867Z,7.20
2019-03-20T17:30:41.482Z,5.50
2019-03-20T17:33:13.205Z,4.93
2019-03-20T17:36:03.568Z,5.17
2019-03-20T17:38:35.258Z,6.60
2019-03-20T17:41:24.835Z,7.80
2019-03-20T17:44:14.774Z,6.37
2019-03-20T17:46:49.876Z,6.70
2019-03-20T17:49:24.646Z,4.80
2019-03-20T17:52:14.406Z,6.33
2019-03-20T17:55:04.203Z,4.67
2019-03-20T17:57:53.879Z,4.93
2019-03-20T18:00:48.005Z,5.93
2019-03-20T18:03:39.123Z,4.30
2019-03-20T18:06:41.908Z,5.40
2019-03-20T18:09:01.022Z,6.43
2019-03-20T18:11:31.774Z,7.70
2019-03-20T18:14:02.419Z,9.47
2019-03-20T18:16:52.440Z,5.90
2019-03-20T18:19:41.967Z,5.83
2019-03-20T18:22:13.032Z,5.07
2019-03-20T18:24:44.913Z,5.67
2019-03-20T18:27:34.654Z,3.23
2019-03-20T18:30:07.344Z,4.17
2019-03-20T18:32:57.120Z,5.87
2019-03-20T18:35:46.903Z,6.07
2019-03-20T18:38:36.509Z,8.00
2019-03-20T18:41:26.091Z,5.83
2019-03-20T18:44:15.905Z,5.63
2019-03-20T18:46:46.511Z,4.90
2019-03-20T18:49:28.258Z,5.70
2019-03-20T18:52:09.493Z,4.23
2019-03-20T18:54:40.480Z,6.73
2019-03-20T18:57:13.693Z,5.27
2019-03-20T19:03:00.834Z,9.13
2019-03-20T19:05:52.065Z,8.33
2019-03-20T19:08:34.638Z,6.07
2019-03-20T19:11:17.393Z,5.00
2019-03-20T19:13:48.284Z,4.50
2019-03-20T19:16:19.633Z,6.00
2019-03-20T19:18:50.321Z,8.03
2019-03-20T19:21:40.000Z,5.77
2019-03-20T19:24:29.648Z,4.43
2019-03-20T19:27:19.269Z,8.17
2019-03-20T19:30:11.307Z,6.00
2019-03-20T19:33:01.243Z,6.70
2019-03-20T19:35:50.983Z,5.30
2019-03-20T19:38:34.238Z,7.43
2019-03-20T19:41:15.388Z,8.43
2019-03-20T19:44:05.273Z,8.33
2019-03-20T19:46:55.032Z,4.87
2019-03-20T19:49:25.723Z,7.00
2019-03-20T19:52:15.800Z,11.37
2019-03-20T19:54:46.558Z,8.80
2019-03-20T19:57:17.530Z,6.63
2019-03-20T19:59:48.521Z,5.53
2019-03-20T20:02:19.233Z,7.10
2019-03-20T20:04:50.095Z,4.93
2019-03-20T20:07:20.749Z,8.50
2019-03-20T20:10:10.635Z,7.10
2019-03-20T20:13:00.487Z,9.27
2019-03-20T20:15:50.055Z,16.03
2019-03-20T20:18:42.569Z,7.13
2019-03-20T20:21:32.277Z,9.13
2019-03-20T20:24:21.927Z,7.73
2019-03-20T20:26:53.854Z,16.30
2019-03-20T20:32:16.103Z,7.27
2019-03-20T20:34:49.672Z,8.07
2019-03-20T20:37:40.814Z,8.60
2019-03-20T20:40:30.504Z,7.97
2019-03-20T20:43:01.183Z,8.60
2019-03-20T20:45:32.354Z,8.00
2019-03-20T20:48:03.236Z,7.80
2019-03-20T20:50:52.928Z,7.03
2019-03-20T20:53:45.808Z,7.90
2019-03-20T20:56:16.632Z,6.87
2019-03-20T20:58:48.751Z,6.03
2019-03-20T21:01:40.757Z,8.57
2019-03-20T21:04:11.634Z,6.93
2019-03-20T21:06:43.615Z,11.73
2019-03-20T21:09:14.611Z,7.47
2019-03-20T21:14:28.544Z,7.17
2019-03-20T21:17:00.553Z,11.47
2019-03-20T21:19:50.640Z,10.80
2019-03-20T21:23:04.731Z,8.33
2019-03-20T21:25:36.141Z,10.37
2019-03-20T21:28:51.090Z,6.60
2019-03-20T21:31:35.216Z,7.67
2019-03-20T21:34:33.940Z,8.90
2019-03-20T21:37:48.689Z,10.63
2019-03-20T21:40:41.689Z,8.90
2019-03-20T21:43:50.189Z,8.70
2019-03-20T21:50:28.984Z,7.83
2019-03-20T21:53:01.430Z,10.23
2019-03-20T21:56:10.280Z,6.93
2019-03-20T21:59:15.615Z,9.13
2019-03-20T22:02:42.542Z,7.67
2019-03-20T22:05:50.935Z,10.33
2019-03-20T22:08:41.215Z,10.03
2019-03-20T22:11:58.355Z,6.77
2019-03-20T22:14:29.719Z,7.50
2019-03-20T22:17:38.135Z,8.40
2019-03-20T22:20:46.662Z,7.03
2019-03-20T22:23:40.727Z,6.83
2019-03-20T22:26:49.124Z,7.10
2019-03-20T22:29:38.986Z,8.20
2019-03-20T22:32:50.967Z,8.37
2019-03-20T22:35:48.932Z,9.13
2019-03-20T22:38:57.410Z,8.47
2019-03-20T22:42:06.146Z,9.73
2019-03-20T22:44:40.563Z,9.20
2019-03-20T22:47:48.920Z,11.37
2019-03-20T22:50:47.391Z,7.57
2019-03-20T22:53:28.964Z,8.43
2019-03-20T22:56:37.970Z,6.90
2019-03-20T22:59:27.846Z,5.03
2019-03-20T23:02:42.497Z,8.33
2019-03-20T23:05:13.985Z,9.33
2019-03-20T23:07:45.412Z,7.70
2019-03-20T23:10:36.069Z,7.43
2019-03-20T23:13:18.293Z,7.00
2019-03-20T23:15:59.052Z,6.40
2019-03-20T23:18:30.450Z,6.80
2019-03-20T23:21:23.534Z,7.20
2019-03-20T23:24:13.382Z,6.93
2019-03-20T23:27:04.314Z,9.47
2019-03-20T23:29:57.808Z,9.40
2019-03-20T23:32:29.233Z,7.47
2019-03-20T23:38:15.243Z,7.13
2019-03-20T23:40:46.623Z,7.07
2019-03-20T23:43:36.905Z,8.27
2019-03-20T23:46:10.026Z,5.90
2019-03-20T23:49:07.581Z,12.17
2019-03-20T23:51:58.207Z,8.10
2019-03-20T23:54:47.331Z,9.37
2019-03-20T23:57:19.236Z,9.83
